Fort Myers, Florida
Current Conditions -  °F | °C
As of 4:53 PM on Monday 20 Oct 2014 (Local Time) from KFMY Reporting Station
Overcast Overcast  
Wind Chill: 30°   Ceiling: 5500
Heat Index: 31°   Visibility: 10mi
Dew Point: 18°   Wind: 3mph
Humidity: 48%   Direction: 190°S
Pressure: 29.92"   Gusts: NA
Location:  26.64°N, 81.87°W
Report Text: KFMY 202053Z 19003KT 10SM OVC055 30/18 A2992 RMK AO2 SLP134 T03000178 56012
Loading
Personal Weather Stations






























Interactive Weather Map
Tropical Storm Tracking
New forecast layout! Learn more

10-Day Weather Forecast

Advertisements
Track Severe Weather on mobile